^^
No Wait Weather (KNEBELLE1) Station Historical Data
Daily Summary for October 19, 2019 Units:  English    Metric   Both
Daily Weekly Monthly Yearly Custom
  High: Low: Average:
Temperature: 69.6 °F 46.2 °F 56.3 °F
Dew Point: 49.75 °F 32.17 °F 43.5 °F
Humidity: 95% 27% 66%
Wind Speed: 2mph 0mph 0mph
Wind Gust: 5mph - -
Wind- - ESE
Pressure: 29.66 in 29.49 in -
Precipitation: 0.11 in    
Historical Graphs
 
 
Tabular Data for October 19, 2019
Time Temperature Dew Point Pressure Wind Wind Speed Wind Gust Humidity Rainfall Rate (Hourly) solar
00:00 61.6 °F 44.79 °F 29.50 in Calm   4 mph 54% 0 in WeatherCatV3.04B91 W/m2
00:05 61.6 °F 44.79 °F 29.50 in Calm   4 mph 54% 0 in WeatherCatV3.04B91 W/m2
00:10 61.6 °F 44.79 °F 29.50 in Calm   2 mph 54% 0 in WeatherCatV3.04B91 W/m2
00:15 61.6 °F 44.79 °F 29.50 in Calm   4 mph 54% 0 in WeatherCatV3.04B91 W/m2
00:24 61.5 °F 44.7 °F 29.50 in Calm     54% 0 in WeatherCatV3.04B91 W/m2
00:25 61.5 °F 44.7 °F 29.50 in Calm     54% 0 in WeatherCatV3.04B91 W/m2
00:30 61.5 °F 44.7 °F 29.50 in Calm     54% 0 in WeatherCatV3.04B91 W/m2
00:35 61.2 °F 44.9 °F 29.50 in Calm     55% 0 in WeatherCatV3.04B91 W/m2
00:40 60.9 °F 45.09 °F 29.50 in Calm     56% 0 in WeatherCatV3.04B91 W/m2
00:45 60.5 °F 45.19 °F 29.50 in Calm     57% 0 in WeatherCatV3.04B91 W/m2
00:50 60.1 °F 45.27 °F 29.50 in Calm     58% 0 in WeatherCatV3.04B91 W/m2
00:55 59.9 °F 45.08 °F 29.50 in Calm   1 mph 58% 0 in WeatherCatV3.04B91 W/m2
01:00 59.8 °F 45.44 °F 29.51 in Calm     59% 0 in WeatherCatV3.04B91 W/m2
01:05 59.8 °F 45.44 °F 29.51 in Calm   2 mph 59% 0 in WeatherCatV3.04B91 W/m2
01:10 59.8 °F 45.44 °F 29.51 in Calm     59% 0 in WeatherCatV3.04B91 W/m2
01:15 59.8 °F 45.44 °F 29.51 in Calm     59% 0 in WeatherCatV3.04B91 W/m2
01:20 59.6 °F 45.7 °F 29.51 in Calm     60% 0 in WeatherCatV3.04B91 W/m2
01:25 59.5 °F 45.6 °F 29.51 in Calm     60% 0 in WeatherCatV3.04B91 W/m2
01:30 59.3 °F 45.85 °F 29.49 in Calm     61% 0 in WeatherCatV3.04B91 W/m2
01:35 59.2 °F 46.19 °F 29.49 in Calm     62% 0 in WeatherCatV3.04B91 W/m2
01:40 59.2 °F 46.19 °F 29.49 in Calm     62% 0 in WeatherCatV3.04B91 W/m2
01:45 59.2 °F 45.76 °F 29.51 in Calm     61% 0 in WeatherCatV3.04B91 W/m2
01:50 59.2 °F 46.19 °F 29.51 in Calm     62% 0 in WeatherCatV3.04B91 W/m2
01:55 59.2 °F 46.61 °F 29.51 in SSW 1 mph 1 mph 63% 0 in WeatherCatV3.04B91 W/m2
02:00 58.9 °F 47.15 °F 29.52 in Calm   2 mph 65% 0 in WeatherCatV3.04B91 W/m2
02:05 58.6 °F 47.27 °F 29.52 in Calm   1 mph 66% 0 in WeatherCatV3.04B91 W/m2
02:10 58.3 °F 47.78 °F 29.52 in Calm     68% 0 in WeatherCatV3.04B91 W/m2
02:15 57.8 °F 48.08 °F 29.52 in Calm     70% 0 in WeatherCatV3.04B91 W/m2
02:20 57.5 °F 48.54 °F 29.52 in Calm     72% 0 in WeatherCatV3.04B91 W/m2
02:25 57 °F 48.43 °F 29.52 in Calm     73% 0 in WeatherCatV3.04B91 W/m2
02:30 56.7 °F 48.14 °F 29.53 in Calm     73% 0.05 in WeatherCatV3.04B91 W/m2
02:35 56.5 °F 49.02 °F 29.53 in SSW 1 mph 2 mph 76% 0.13 in WeatherCatV3.04B91 W/m2
02:40 55.7 °F 49.29 °F 29.53 in Calm     79% 0.15 in WeatherCatV3.04B91 W/m2
02:45 55 °F 48.94 °F 29.51 in Calm   3 mph 80% 0.1 in WeatherCatV3.04B91 W/m2
02:50 54.5 °F 48.79 °F 29.51 in ENE 1 mph 3 mph 81% 0.18 in WeatherCatV3.04B91 W/m2
02:55 54.1 °F 49.05 °F 29.51 in ENE 2 mph 3 mph 83% 0.07 in WeatherCatV3.04B91 W/m2
03:00 53.8 °F 49.08 °F 29.50 in ENE 2 mph 2 mph 84% 0.05 in WeatherCatV3.04B91 W/m2
03:05 53.5 °F 49.1 °F 29.50 in Calm   2 mph 85% 0.04 in WeatherCatV3.04B91 W/m2
03:10 53.3 °F 49.22 °F 29.50 in Calm     86% 0.04 in WeatherCatV3.04B91 W/m2
03:15 53.2 °F 49.43 °F 29.51 in Calm     87% 0.05 in WeatherCatV3.04B91 W/m2
03:20 53.1 °F 49.64 °F 29.51 in Calm   1 mph 88% 0.05 in WeatherCatV3.04B91 W/m2
03:25 52.9 °F 49.75 °F 29.51 in Calm     89% 0.05 in WeatherCatV3.04B91 W/m2
03:30 52.6 °F 49.45 °F 29.51 in Calm   2 mph 89% 0.04 in WeatherCatV3.04B91 W/m2
03:35 52.5 °F 49.35 °F 29.51 in Calm     89% 0 in WeatherCatV3.04B91 W/m2
03:40 52.3 °F 49.15 °F 29.51 in Calm     89% 0 in WeatherCatV3.04B91 W/m2
03:45 52.2 °F 49.06 °F 29.53 in Calm     89% 0 in WeatherCatV3.04B91 W/m2
03:50 52 °F 48.86 °F 29.53 in Calm     89% 0 in WeatherCatV3.04B91 W/m2
03:55 51.9 °F 48.76 °F 29.53 in Calm     89% 0 in WeatherCatV3.04B91 W/m2
04:00 51.9 °F 48.76 °F 29.53 in Calm     89% 0 in WeatherCatV3.04B91 W/m2
04:05 51.7 °F 48.56 °F 29.53 in Calm     89% 0 in WeatherCatV3.04B91 W/m2
04:10 51.7 °F 48.56 °F 29.53 in Calm     89% 0 in WeatherCatV3.04B91 W/m2
04:15 51.6 °F 48.46 °F 29.55 in Calm     89% 0 in WeatherCatV3.04B91 W/m2
04:20 51.6 °F 48.16 °F 29.55 in Calm     88% 0 in WeatherCatV3.04B91 W/m2
04:25 51.4 °F 47.97 °F 29.55 in Calm     88% 0 in WeatherCatV3.04B91 W/m2
04:30 51.4 °F 47.97 °F 29.53 in Calm     88% 0 in WeatherCatV3.04B91 W/m2
04:35 51.4 °F 47.97 °F 29.53 in Calm     88% 0 in WeatherCatV3.04B91 W/m2
04:40 51.3 °F 47.87 °F 29.53 in Calm     88% 0 in WeatherCatV3.04B91 W/m2
04:45 51.3 °F 48.17 °F 29.53 in Calm     89% 0 in WeatherCatV3.04B91 W/m2
04:50 51.1 °F 48.27 °F 29.53 in Calm     90% 0 in WeatherCatV3.04B91 W/m2
04:55 51.1 °F 48.27 °F 29.53 in Calm     90% 0 in WeatherCatV3.04B91 W/m2
05:00 51 °F 48.46 °F 29.56 in Calm     91% 0 in WeatherCatV3.04B91 W/m2
05:05 50.8 °F 48.27 °F 29.56 in Calm     91% 0 in WeatherCatV3.04B91 W/m2
05:10 50.7 °F 48.46 °F 29.56 in Calm     92% 0 in WeatherCatV3.04B91 W/m2
05:15 50.7 °F 48.46 °F 29.57 in Calm     92% 0 in WeatherCatV3.04B91 W/m2
05:20 50.5 °F 48.26 °F 29.57 in Calm     92% 0 in WeatherCatV3.04B91 W/m2
05:25 50.5 °F 48.26 °F 29.57 in Calm     92% 0 in WeatherCatV3.04B91 W/m2
05:30 50.4 °F 48.16 °F 29.57 in Calm     92% 0 in WeatherCatV3.04B91 W/m2
05:35 50.4 °F 48.45 °F 29.57 in Calm     93% 0 in WeatherCatV3.04B91 W/m2
05:40 50.2 °F 48.25 °F 29.57 in Calm     93% 0 in WeatherCatV3.04B91 W/m2
05:45 50.2 °F 48.25 °F 29.57 in Calm     93% 0 in WeatherCatV3.04B91 W/m2
05:50 50.2 °F 48.25 °F 29.57 in Calm     93% 0 in WeatherCatV3.04B91 W/m2
05:55 50.2 °F 48.25 °F 29.57 in Calm     93% 0 in WeatherCatV3.04B91 W/m2
06:00 50.2 °F 48.54 °F 29.57 in Calm     94% 0 in WeatherCatV3.04B91 W/m2
06:05 50.2 °F 48.54 °F 29.57 in Calm     94% 0 in WeatherCatV3.04B91 W/m2
06:10 50.2 °F 48.54 °F 29.57 in Calm     94% 0 in WeatherCatV3.04B91 W/m2
06:15 50.1 °F 48.44 °F 29.59 in Calm     94% 0 in WeatherCatV3.04B91 W/m2
06:20 50.1 °F 48.44 °F 29.59 in Calm     94% 0 in WeatherCatV3.04B91 W/m2
06:25 50.1 °F 48.72 °F 29.59 in Calm     95% 0 in WeatherCatV3.04B91 W/m2
06:30 50.1 °F 48.72 °F 29.59 in Calm     95% 0 in WeatherCatV3.04B91 W/m2
06:35 50.1 °F 48.44 °F 29.59 in Calm     94% 0 in WeatherCatV3.04B91 W/m2
06:40 50.2 °F 48.54 °F 29.59 in Calm     94% 0 in WeatherCatV3.04B91 W/m2
06:45 50.2 °F 48.54 °F 29.59 in Calm     94% 0 in WeatherCatV3.04B91 W/m2
06:50 50.2 °F 48.54 °F 29.59 in Calm     94% 0 in WeatherCatV3.04B91 W/m2
06:55 50.2 °F 48.54 °F 29.59 in Calm     94% 0 in WeatherCatV3.04B91 W/m2
07:00 50.1 °F 48.44 °F 29.59 in Calm     94% 0 in WeatherCatV3.04B91 W/m2
07:05 50.1 °F 48.44 °F 29.59 in Calm     94% 0 in WeatherCatV3.04B91 W/m2
07:10 50.1 °F 48.44 °F 29.59 in Calm     94% 0 in WeatherCatV3.04B91 W/m2
07:15 49.9 °F 48.24 °F 29.60 in Calm     94% 0 in WeatherCatV3.04B91 W/m2
07:20 50.1 °F 48.44 °F 29.60 in Calm     94% 0 in WeatherCatV3.04B91 W/m2
07:25 50.1 °F 48.44 °F 29.60 in Calm     94% 0 in WeatherCatV3.04B91 W/m2
07:30 50.1 °F 48.44 °F 29.60 in Calm     94% 0 in WeatherCatV3.04B91 W/m2
07:35 50.1 °F 48.44 °F 29.60 in Calm     94% 0 in WeatherCatV3.04B91 W/m2
07:40 50.1 °F 48.44 °F 29.60 in Calm     94% 0 in WeatherCatV3.04B91 W/m2
07:45 49.9 °F 48.24 °F 29.60 in Calm     94% 0 in WeatherCatV3.04B91 W/m2
07:50 49.9 °F 48.24 °F 29.60 in Calm     94% 0 in WeatherCatV3.04B91 W/m2
07:55 49.9 °F 48.52 °F 29.60 in Calm     95% 0 in WeatherCatV3.04B91 W/m2
08:00 49.9 °F 48.52 °F 29.60 in Calm     95% 0 in WeatherCatV3.04B91 W/m2
08:05 49.9 °F 48.52 °F 29.60 in Calm     95% 0 in WeatherCatV3.04B91 W/m2
08:10 49.9 °F 48.52 °F 29.60 in Calm     95% 0 in WeatherCatV3.04B91 W/m2
08:15 49.9 °F 48.52 °F 29.61 in Calm     95% 0 in WeatherCatV3.04B91 W/m2
08:20 49.9 °F 48.52 °F 29.61 in Calm     95% 0 in WeatherCatV3.04B91 W/m2
08:25 50.1 °F 48.44 °F 29.61 in Calm     94% 0 in WeatherCatV3.04B91 W/m2
08:31 50.1 °F 48.44 °F 29.62 in Calm     94% 0 in WeatherCatV3.04B91 W/m2
08:35 50.2 °F 48.54 °F 29.62 in Calm     94% 0 in WeatherCatV3.04B91 W/m2
08:41 50.4 °F 48.45 °F 29.62 in Calm     93% 0 in WeatherCatV3.04B91 W/m2
08:45 50.5 °F 48.55 °F 29.63 in Calm     93% 0 in WeatherCatV3.04B91 W/m2
08:51 50.5 °F 48.55 °F 29.63 in Calm     93% 0 in WeatherCatV3.04B91 W/m2
08:55 50.7 °F 48.75 °F 29.63 in Calm     93% 0 in WeatherCatV3.04B91 W/m2
09:01 50.7 °F 48.75 °F 29.63 in Calm     93% 0 in WeatherCatV3.04B91 W/m2
09:05 50.5 °F 48.55 °F 29.63 in Calm     93% 0 in WeatherCatV3.04B91 W/m2
09:10 50.5 °F 48.26 °F 29.63 in Calm     92% 0 in WeatherCatV3.04B91 W/m2
09:15 50.5 °F 48.26 °F 29.64 in Calm     92% 0 in WeatherCatV3.04B91 W/m2
09:21 50.5 °F 48.26 °F 29.64 in Calm     92% 0 in WeatherCatV3.04B91 W/m2
09:25 50.7 °F 48.46 °F 29.64 in Calm     92% 0 in WeatherCatV3.04B91 W/m2
09:31 51 °F 48.46 °F 29.64 in ENE 1 mph 1 mph 91% 0 in WeatherCatV3.04B91 W/m2
09:35 51.1 °F 48.56 °F 29.64 in Calm     91% 0 in WeatherCatV3.04B91 W/m2
09:40 51.4 °F 48.56 °F 29.64 in Calm     90% 0 in WeatherCatV3.04B91 W/m2
09:45 51.6 °F 48.46 °F 29.65 in Calm     89% 0 in WeatherCatV3.04B91 W/m2
09:50 51.7 °F 48.26 °F 29.65 in Calm     88% 0 in WeatherCatV3.04B91 W/m2
09:55 52 °F 47.94 °F 29.65 in Calm     86% 0 in WeatherCatV3.04B91 W/m2
10:01 52.3 °F 47.92 °F 29.65 in Calm     85% 0 in WeatherCatV3.04B91 W/m2
10:05 52.5 °F 47.81 °F 29.65 in Calm     84% 0 in WeatherCatV3.04B91 W/m2
10:11 52.8 °F 47.78 °F 29.65 in Calm   1 mph 83% 0 in WeatherCatV3.04B91 W/m2
10:15 52.9 °F 47.88 °F 29.65 in Calm     83% 0 in WeatherCatV3.04B91 W/m2
10:21 53.1 °F 47.75 °F 29.65 in Calm     82% 0 in WeatherCatV3.04B91 W/m2
10:25 53.2 °F 47.85 °F 29.65 in Calm     82% 0 in WeatherCatV3.04B91 W/m2
10:31 53.5 °F 47.81 °F 29.65 in Calm     81% 0 in WeatherCatV3.04B91 W/m2
10:35 53.6 °F 47.58 °F 29.65 in Calm     80% 0 in WeatherCatV3.04B91 W/m2
10:41 54.1 °F 47.73 °F 29.65 in Calm     79% 0 in WeatherCatV3.04B91 W/m2
10:45 54.2 °F 47.49 °F 29.65 in Calm     78% 0 in WeatherCatV3.04B91 W/m2
10:50 54.7 °F 47.97 °F 29.65 in Calm     78% 0 in WeatherCatV3.04B91 W/m2
10:55 54.8 °F 47.73 °F 29.65 in Calm     77% 0 in WeatherCatV3.04B91 W/m2
11:01 55.3 °F 47.51 °F 29.65 in Calm     75% 0 in WeatherCatV3.04B91 W/m2
11:05 55.4 °F 47.61 °F 29.65 in Calm     75% 0 in WeatherCatV3.04B91 W/m2
11:11 55.7 °F 47.18 °F 29.65 in Calm   2 mph 73% 0 in WeatherCatV3.04B91 W/m2
11:15 55.9 °F 46.63 °F 29.65 in Calm     71% 0 in WeatherCatV3.04B91 W/m2
11:20 56.2 °F 46.16 °F 29.65 in Calm     69% 0 in WeatherCatV3.04B91 W/m2
11:25 56.5 °F 45.67 °F 29.65 in Calm     67% 0 in WeatherCatV3.04B91 W/m2
11:31 56.7 °F 46.26 °F 29.65 in Calm     68% 0 in WeatherCatV3.04B91 W/m2
11:35 56.9 °F 46.05 °F 29.65 in Calm     67% 0 in WeatherCatV3.04B91 W/m2
11:41 57 °F 45.35 °F 29.65 in Calm     65% 0 in WeatherCatV3.04B91 W/m2
11:45 57.2 °F 45.54 °F 29.64 in Calm     65% 0 in WeatherCatV3.04B91 W/m2
11:51 57.8 °F 44 °F 29.64 in Calm     60% 0 in WeatherCatV3.04B91 W/m2
11:55 58.1 °F 44.72 °F 29.64 in Calm     61% 0 in WeatherCatV3.04B91 W/m2
12:01 58.6 °F 44.76 °F 29.64 in Calm     60% 0 in WeatherCatV3.04B91 W/m2
12:05 58.9 °F 43.69 °F 29.64 in Calm     57% 0 in WeatherCatV3.04B91 W/m2
12:11 59.3 °F 44.07 °F 29.64 in Calm     57% 0 in WeatherCatV3.04B91 W/m2
12:15 59.5 °F 43.79 °F 29.64 in Calm     56% 0 in WeatherCatV3.04B91 W/m2
12:21 60.1 °F 42.91 °F 29.64 in Calm   4 mph 53% 0 in WeatherCatV3.04B91 W/m2
12:25 60.4 °F 42.69 °F 29.64 in Calm     52% 0 in WeatherCatV3.04B91 W/m2
12:31 60.7 °F 42.97 °F 29.64 in Calm     52% 0 in WeatherCatV3.04B91 W/m2
12:35 60.9 °F 41.61 °F 29.64 in Calm   2 mph 49% 0 in WeatherCatV3.04B91 W/m2
12:41 61.2 °F 41.88 °F 29.64 in Calm     49% 0 in WeatherCatV3.04B91 W/m2
12:45 61.3 °F 41.44 °F 29.63 in Calm   2 mph 48% 0 in WeatherCatV3.04B91 W/m2
12:51 61.5 °F 41.62 °F 29.63 in Calm     48% 0 in WeatherCatV3.04B91 W/m2
12:55 62 °F 42.62 °F 29.63 in NNW 1 mph 2 mph 49% 0 in WeatherCatV3.04B91 W/m2
13:00 62.3 °F 42.36 °F 29.63 in Calm     48% 0 in WeatherCatV3.04B91 W/m2
13:05 62.6 °F 43.17 °F 29.63 in Calm     49% 0 in WeatherCatV3.04B91 W/m2
13:10 62.9 °F 42.9 °F 29.63 in Calm     48% 0 in WeatherCatV3.04B91 W/m2
13:15 63.2 °F 43.72 °F 29.62 in Calm     49% 0 in WeatherCatV3.04B91 W/m2
13:20 63.7 °F 40.78 °F 29.62 in Calm   1 mph 43% 0 in WeatherCatV3.04B91 W/m2
13:25 64.2 °F 41.83 °F 29.62 in Calm   1 mph 44% 0 in WeatherCatV3.04B91 W/m2
13:30 64.5 °F 44.37 °F 29.62 in Calm     48% 0 in WeatherCatV3.04B91 W/m2
13:35 64.5 °F 40.89 °F 29.62 in Calm     42% 0 in WeatherCatV3.04B91 W/m2
13:40 64.8 °F 41.16 °F 29.62 in Calm   1 mph 42% 0 in WeatherCatV3.04B91 W/m2
13:45 65.5 °F 40.53 °F 29.61 in Calm   3 mph 40% 0 in WeatherCatV3.04B91 W/m2
13:50 65.6 °F 41.26 °F 29.61 in Calm     41% 0 in WeatherCatV3.04B91 W/m2
13:55 65.3 °F 42.22 °F 29.61 in Calm     43% 0 in WeatherCatV3.04B91 W/m2
14:00 65.8 °F 40.8 °F 29.61 in Calm   2 mph 40% 0 in WeatherCatV3.04B91 W/m2
14:05 65.8 °F 38.8 °F 29.61 in Calm   5 mph 37% 0 in WeatherCatV3.04B91 W/m2
14:10 65.3 °F 38.35 °F 29.61 in Calm   3 mph 37% 0 in WeatherCatV3.04B91 W/m2
14:15 65.2 °F 37.57 °F 29.61 in Calm   1 mph 36% 0 in WeatherCatV3.04B91 W/m2
14:20 65.2 °F 37.57 °F 29.61 in Calm   1 mph 36% 0 in WeatherCatV3.04B91 W/m2
14:25 65.2 °F 38.27 °F 29.61 in Calm   2 mph 37% 0 in WeatherCatV3.04B91 W/m2
14:30 65.3 °F 37.66 °F 29.60 in Calm   1 mph 36% 0 in WeatherCatV3.04B91 W/m2
14:35 65.5 °F 37.83 °F 29.60 in ENE 1 mph 1 mph 36% 0 in WeatherCatV3.04B91 W/m2
14:40 66.1 °F 36.91 °F 29.60 in Calm     34% 0 in WeatherCatV3.04B91 W/m2
14:45 66.4 °F 37.17 °F 29.60 in Calm   1 mph 34% 0 in WeatherCatV3.04B91 W/m2
14:50 66.8 °F 38.26 °F 29.60 in Calm     35% 0 in WeatherCatV3.04B91 W/m2
14:55 66.8 °F 37.52 °F 29.60 in Calm   1 mph 34% 0 in WeatherCatV3.04B91 W/m2
15:00 66.6 °F 37.35 °F 29.60 in Calm   3 mph 34% 0 in WeatherCatV3.04B91 W/m2
15:05 66.8 °F 38.98 °F 29.60 in ENE 1 mph 1 mph 36% 0 in WeatherCatV3.04B91 W/m2
15:10 67.3 °F 35.62 °F 29.60 in Calm   1 mph 31% 0 in WeatherCatV3.04B91 W/m2
15:15 66.9 °F 35.28 °F 29.60 in Calm     31% 0 in WeatherCatV3.04B91 W/m2
15:20 66.9 °F 34.45 °F 29.60 in Calm     30% 0 in WeatherCatV3.04B91 W/m2
15:25 67.3 °F 37.96 °F 29.60 in Calm     34% 0 in WeatherCatV3.04B91 W/m2
15:30 66.9 °F 35.28 °F 29.60 in Calm     31% 0 in WeatherCatV3.04B91 W/m2
15:35 66.8 °F 35.19 °F 29.60 in Calm     31% 0 in WeatherCatV3.04B91 W/m2
15:40 67.1 °F 35.45 °F 29.60 in Calm   4 mph 31% 0 in WeatherCatV3.04B91 W/m2
15:45 67.3 °F 34.8 °F 29.59 in Calm     30% 0 in WeatherCatV3.04B91 W/m2
15:50 67.3 °F 33.07 °F 29.59 in Calm     28% 0 in WeatherCatV3.04B91 W/m2
15:55 67.3 °F 32.17 °F 29.59 in Calm     27% 0 in WeatherCatV3.04B91 W/m2
16:00 67.4 °F 33.16 °F 29.59 in Calm     28% 0 in WeatherCatV3.04B91 W/m2
16:05 67.8 °F 32.6 °F 29.59 in Calm   1 mph 27% 0 in WeatherCatV3.04B91 W/m2
16:10 68.4 °F 33.11 °F 29.59 in Calm     27% 0 in WeatherCatV3.04B91 W/m2
16:15 68.3 °F 33.02 °F 29.59 in Calm     27% 0 in WeatherCatV3.04B91 W/m2
16:20 68.4 °F 34.9 °F 29.59 in Calm     29% 0 in WeatherCatV3.04B91 W/m2
16:25 68.6 °F 34.19 °F 29.59 in Calm     28% 0 in WeatherCatV3.04B91 W/m2
16:30 68.4 °F 35.75 °F 29.59 in Calm     30% 0 in WeatherCatV3.04B91 W/m2
16:35 68.6 °F 34.19 °F 29.59 in Calm     28% 0 in WeatherCatV3.04B91 W/m2
16:40 69.3 °F 35.67 °F 29.59 in Calm     29% 0 in WeatherCatV3.04B91 W/m2
16:45 69.6 °F 34.13 °F 29.59 in Calm     27% 0 in WeatherCatV3.04B91 W/m2
16:50 69.3 °F 34.79 °F 29.59 in Calm     28% 0 in WeatherCatV3.04B91 W/m2
16:55 68.6 °F 35.92 °F 29.59 in Calm     30% 0 in WeatherCatV3.04B91 W/m2
17:00 67.8 °F 34.38 °F 29.60 in Calm     29% 0 in WeatherCatV3.04B91 W/m2
17:05 67.1 °F 32.9 °F 29.60 in Calm     28% 0 in WeatherCatV3.04B91 W/m2
17:10 66.6 °F 32.47 °F 29.60 in Calm     28% 0 in WeatherCatV3.04B91 W/m2
17:15 66.3 °F 35.55 °F 29.61 in Calm     32% 0 in WeatherCatV3.04B91 W/m2
17:20 65.8 °F 34.32 °F 29.61 in Calm     31% 0 in WeatherCatV3.04B91 W/m2
17:25 65.6 °F 36.47 °F 29.61 in Calm     34% 0 in WeatherCatV3.04B91 W/m2
17:30 65.3 °F 34.68 °F 29.60 in Calm     32% 0 in WeatherCatV3.04B91 W/m2
17:35 65 °F 35.19 °F 29.60 in Calm     33% 0 in WeatherCatV3.04B91 W/m2
17:40 64.7 °F 35.68 °F 29.60 in Calm     34% 0 in WeatherCatV3.04B91 W/m2
17:45 64.3 °F 35.33 °F 29.61 in Calm     34% 0 in WeatherCatV3.04B91 W/m2
17:50 63.9 °F 37.79 °F 29.61 in Calm     38% 0 in WeatherCatV3.04B91 W/m2
17:55 63.4 °F 36.67 °F 29.61 in Calm     37% 0 in WeatherCatV3.04B91 W/m2
18:00 63.1 °F 38.38 °F 29.61 in Calm     40% 0 in WeatherCatV3.04B91 W/m2
18:05 62.7 °F 38.66 °F 29.61 in Calm     41% 0 in WeatherCatV3.04B91 W/m2
18:10 62.3 °F 38.91 °F 29.61 in Calm     42% 0 in WeatherCatV3.04B91 W/m2
18:15 61.6 °F 37.67 °F 29.61 in Calm     41% 0 in WeatherCatV3.04B91 W/m2
18:20 61.2 °F 37.92 °F 29.61 in Calm     42% 0 in WeatherCatV3.04B91 W/m2
18:25 60.9 °F 38.84 °F 29.61 in Calm     44% 0 in WeatherCatV3.04B91 W/m2
18:30 60.4 °F 38.96 °F 29.61 in Calm     45% 0 in WeatherCatV3.04B91 W/m2
18:35 59.9 °F 38.51 °F 29.61 in Calm     45% 0 in WeatherCatV3.04B91 W/m2
18:40 59.5 °F 39.25 °F 29.61 in Calm     47% 0 in WeatherCatV3.04B91 W/m2
18:45 59 °F 39.87 °F 29.62 in Calm     49% 0 in WeatherCatV3.04B91 W/m2
18:50 58.6 °F 42 °F 29.62 in Calm     54% 0 in WeatherCatV3.04B91 W/m2
18:55 58.1 °F 40.57 °F 29.62 in Calm     52% 0 in WeatherCatV3.04B91 W/m2
19:00 57.5 °F 40.98 °F 29.62 in Calm     54% 0 in WeatherCatV3.04B91 W/m2
19:05 57 °F 41.46 °F 29.62 in Calm     56% 0 in WeatherCatV3.04B91 W/m2
19:10 56.5 °F 40.99 °F 29.62 in Calm     56% 0 in WeatherCatV3.04B91 W/m2
19:15 56.2 °F 40.71 °F 29.63 in Calm     56% 0 in WeatherCatV3.04B91 W/m2
19:20 55.9 °F 40.89 °F 29.63 in Calm     57% 0 in WeatherCatV3.04B91 W/m2
19:25 55.7 °F 42.03 °F 29.63 in Calm     60% 0 in WeatherCatV3.04B91 W/m2
19:30 55.3 °F 40.33 °F 29.63 in Calm     57% 0 in WeatherCatV3.04B91 W/m2
19:35 55 °F 40.05 °F 29.63 in Calm     57% 0 in WeatherCatV3.04B91 W/m2
19:40 54.8 °F 39.86 °F 29.63 in Calm     57% 0 in WeatherCatV3.04B91 W/m2
19:45 54.7 °F 41.09 °F 29.64 in Calm     60% 0 in WeatherCatV3.04B91 W/m2
19:50 54.5 °F 41.75 °F 29.64 in Calm     62% 0 in WeatherCatV3.04B91 W/m2
19:55 54.2 °F 40.62 °F 29.64 in Calm     60% 0 in WeatherCatV3.04B91 W/m2
20:00 53.8 °F 39.81 °F 29.64 in Calm     59% 0 in WeatherCatV3.04B91 W/m2
20:05 53.6 °F 40.9 °F 29.64 in Calm     62% 0 in WeatherCatV3.04B91 W/m2
20:10 53.3 °F 39.77 °F 29.64 in Calm     60% 0 in WeatherCatV3.04B91 W/m2
20:15 53.2 °F 39.68 °F 29.64 in Calm     60% 0 in WeatherCatV3.04B91 W/m2
20:20 53.2 °F 39.68 °F 29.64 in Calm     60% 0 in WeatherCatV3.04B91 W/m2
20:25 53.2 °F 39.68 °F 29.64 in Calm     60% 0 in WeatherCatV3.04B91 W/m2
20:31 53.1 °F 40.43 °F 29.65 in Calm     62% 0 in WeatherCatV3.04B91 W/m2
20:35 52.9 °F 41.46 °F 29.65 in Calm     65% 0 in WeatherCatV3.04B91 W/m2
20:40 52.8 °F 40.96 °F 29.65 in Calm     64% 0 in WeatherCatV3.04B91 W/m2
20:45 52.5 °F 41.08 °F 29.64 in Calm     65% 0 in WeatherCatV3.04B91 W/m2
20:50 52.2 °F 40.79 °F 29.64 in Calm     65% 0 in WeatherCatV3.04B91 W/m2
20:55 52 °F 40.6 °F 29.64 in Calm     65% 0 in WeatherCatV3.04B91 W/m2
21:00 52 °F 40.6 °F 29.65 in Calm     65% 0 in WeatherCatV3.04B91 W/m2
21:05 52 °F 40.2 °F 29.65 in Calm     64% 0 in WeatherCatV3.04B91 W/m2
21:10 52.2 °F 40.79 °F 29.65 in Calm     65% 0 in WeatherCatV3.04B91 W/m2
21:15 52 °F 40.6 °F 29.65 in Calm     65% 0 in WeatherCatV3.04B91 W/m2
21:20 51.7 °F 40.71 °F 29.65 in Calm     66% 0 in WeatherCatV3.04B91 W/m2
21:26 51.4 °F 41.2 °F 29.65 in Calm     68% 0 in WeatherCatV3.04B91 W/m2
21:30 51.3 °F 41.48 °F 29.66 in Calm     69% 0 in WeatherCatV3.04B91 W/m2
21:35 51 °F 41.56 °F 29.66 in Calm     70% 0 in WeatherCatV3.04B91 W/m2
21:40 50.7 °F 41.28 °F 29.66 in Calm     70% 0 in WeatherCatV3.04B91 W/m2
21:45 50.5 °F 41.45 °F 29.66 in Calm     71% 0 in WeatherCatV3.04B91 W/m2
21:50 50.4 °F 41.36 °F 29.66 in Calm     71% 0 in WeatherCatV3.04B91 W/m2
21:55 50.1 °F 41.07 °F 29.66 in Calm     71% 0 in WeatherCatV3.04B91 W/m2
22:00 49.9 °F 40.88 °F 29.66 in Calm     71% 0 in WeatherCatV3.04B91 W/m2
22:05 49.8 °F 41.14 °F 29.66 in Calm     72% 0 in WeatherCatV3.04B91 W/m2
22:10 49.6 °F 41.31 °F 29.66 in Calm     73% 0 in WeatherCatV3.04B91 W/m2
22:15 49.5 °F 41.56 °F 29.66 in Calm     74% 0 in WeatherCatV3.04B91 W/m2
22:20 49.2 °F 41.27 °F 29.66 in Calm     74% 0 in WeatherCatV3.04B91 W/m2
22:25 49.1 °F 41.17 °F 29.66 in Calm     74% 0 in WeatherCatV3.04B91 W/m2
22:30 48.9 °F 41.33 °F 29.65 in Calm     75% 0 in WeatherCatV3.04B91 W/m2
22:35 48.8 °F 41.23 °F 29.65 in Calm     75% 0 in WeatherCatV3.04B91 W/m2
22:40 48.6 °F 41.38 °F 29.65 in Calm     76% 0 in WeatherCatV3.04B91 W/m2
22:45 48.5 °F 41.28 °F 29.65 in Calm     76% 0 in WeatherCatV3.04B91 W/m2
22:50 48.3 °F 41.09 °F 29.65 in Calm     76% 0 in WeatherCatV3.04B91 W/m2
22:56 48.2 °F 41.33 °F 29.65 in Calm     77% 0 in WeatherCatV3.04B91 W/m2
23:00 48 °F 41.14 °F 29.65 in Calm     77% 0 in WeatherCatV3.04B91 W/m2
23:05 47.9 °F 41.04 °F 29.65 in Calm     77% 0 in WeatherCatV3.04B91 W/m2
23:10 47.7 °F 41.18 °F 29.65 in Calm     78% 0 in WeatherCatV3.04B91 W/m2
23:15 47.6 °F 41.08 °F 29.65 in Calm     78% 0 in WeatherCatV3.04B91 W/m2
23:20 47.4 °F 41.22 °F 29.65 in Calm     79% 0 in WeatherCatV3.04B91 W/m2
23:25 47.3 °F 41.45 °F 29.65 in Calm     80% 0 in WeatherCatV3.04B91 W/m2
23:30 47.1 °F 41.25 °F 29.65 in Calm     80% 0 in WeatherCatV3.04B91 W/m2
23:35 47 °F 41.48 °F 29.65 in Calm     81% 0 in WeatherCatV3.04B91 W/m2
23:40 46.7 °F 41.18 °F 29.65 in Calm     81% 0 in WeatherCatV3.04B91 W/m2
23:45 46.5 °F 40.99 °F 29.65 in Calm     81% 0 in WeatherCatV3.04B91 W/m2
23:50 46.4 °F 41.21 °F 29.65 in Calm     82% 0 in WeatherCatV3.04B91 W/m2
23:55 46.2 °F 41.01 °F 29.65 in Calm     82% 0 in WeatherCatV3.04B91 W/m2
Bellevue, Nebraska, USA
Compliments of Weather Underground - 3.25 mb